Time;durP1;ratioP1;P1;durP2;ratioP2;P2;SDS_P1;SDS_P2;PMS_P1;PMS_P2;Temp;Humidity;BMP_temperature;BMP_pressure;BME280_temperature;BME280_humidity;BME280_pressure;Samples;Min_cycle;Max_cycle;Signal;HPM_P1;HPM_P2
2020/12/14 00:02:11;;;;;;;6.35;4.35;;;4.40;44.00;;;;;;5068085;28;20186;-74
2020/12/14 00:04:37;;;;;;;8.63;6.07;;;4.30;44.60;;;;;;5067637;28;20213;-71
2020/12/14 00:07:02;;;;;;;5.40;5.00;;;4.40;44.50;;;;;;5068192;28;20216;-73
2020/12/14 00:09:31;;;;;;;6.23;5.53;;;4.30;44.80;;;;;;5067621;28;20501;-74
2020/12/14 00:11:57;;;;;;;3.95;3.65;;;4.30;45.10;;;;;;5068155;28;20194;-75
2020/12/14 00:14:22;;;;;;;7.23;5.60;;;4.30;45.30;;;;;;5068446;28;20180;-74
2020/12/14 00:16:48;;;;;;;6.30;5.60;;;4.30;45.40;;;;;;5069107;28;20763;-73
2020/12/14 00:19:13;;;;;;;4.17;3.53;;;4.30;45.80;;;;;;5067850;28;20236;-72
2020/12/14 00:21:39;;;;;;;6.30;4.97;;;4.30;45.80;;;;;;5069882;28;20202;-73
2020/12/14 00:24:04;;;;;;;6.97;4.80;;;4.30;45.80;;;;;;5069368;28;20238;-74
2020/12/14 00:26:30;;;;;;;5.90;5.30;;;4.20;46.50;;;;;;5068645;28;20200;-72
2020/12/14 00:28:56;;;;;;;4.27;3.77;;;4.20;46.60;;;;;;5068801;28;20175;-71
2020/12/14 00:31:21;;;;;;;5.95;5.45;;;4.30;46.60;;;;;;5069556;28;20187;-73
2020/12/14 00:33:47;;;;;;;5.73;4.57;;;4.30;46.30;;;;;;5069827;28;20694;-71
2020/12/14 00:36:12;;;;;;;4.63;4.20;;;4.30;46.80;;;;;;5069507;28;20684;-72
2020/12/14 00:38:39;;;;;;;5.67;5.13;;;4.30;46.40;;;;;;5069099;28;20242;-73
2020/12/14 00:41:05;;;;;;;6.05;5.00;;;4.30;46.00;;;;;;5068805;28;20183;-73
2020/12/14 00:43:31;;;;;;;5.67;5.07;;;4.30;45.90;;;;;;5068582;28;20244;-73
2020/12/14 00:45:57;;;;;;;6.68;5.15;;;4.20;45.60;;;;;;5067880;28;20449;-73
2020/12/14 00:48:22;;;;;;;6.27;5.70;;;4.30;45.70;;;;;;5068185;28;20213;-72
2020/12/14 00:50:48;;;;;;;5.37;3.70;;;4.30;45.30;;;;;;5067400;28;20191;-70
2020/12/14 00:53:14;;;;;;;5.57;5.07;;;4.20;45.20;;;;;;5067546;28;20202;-71
2020/12/14 00:55:39;;;;;;;4.83;3.90;;;4.20;45.10;;;;;;5068407;28;20190;-72
2020/12/14 00:58:05;;;;;;;5.10;4.60;;;4.20;45.00;;;;;;5068736;28;20262;-73
2020/12/14 01:00:31;;;;;;;5.13;4.60;;;4.20;44.80;;;;;;5066841;28;20974;-72
2020/12/14 01:02:57;;;;;;;4.57;4.18;;;4.30;44.40;;;;;;5068299;28;20182;-73
2020/12/14 01:05:22;;;;;;;4.37;3.97;;;4.30;44.40;;;;;;5068883;28;20299;-70
2020/12/14 01:07:48;;;;;;;4.40;4.00;;;4.20;44.20;;;;;;5069466;28;20206;-73
2020/12/14 01:10:14;;;;;;;5.93;4.20;;;4.30;43.90;;;;;;5069893;28;20202;-70
2020/12/14 01:12:40;;;;;;;6.60;4.70;;;4.30;43.90;;;;;;5070306;28;20172;-71
2020/12/14 01:15:06;;;;;;;5.47;4.97;;;4.30;43.70;;;;;;5068948;28;20249;-74
2020/12/14 01:17:32;;;;;;;4.97;4.47;;;4.20;44.40;;;;;;5069763;28;20180;-71
2020/12/14 01:19:58;;;;;;;5.05;4.55;;;4.20;43.70;;;;;;5069589;28;20914;-72
2020/12/14 01:22:23;;;;;;;6.03;5.13;;;4.20;43.70;;;;;;5070357;28;20214;-74
2020/12/14 01:24:49;;;;;;;5.43;4.83;;;4.20;43.40;;;;;;5070116;28;20709;-71
2020/12/14 01:27:14;;;;;;;4.70;3.93;;;4.20;43.50;;;;;;5069007;28;20207;-73
2020/12/14 01:29:40;;;;;;;5.10;4.50;;;4.20;43.70;;;;;;5067409;28;20668;-72
2020/12/14 01:32:05;;;;;;;6.03;3.70;;;4.20;43.40;;;;;;5069416;28;20392;-72
2020/12/14 01:34:31;;;;;;;4.40;3.83;;;4.20;43.50;;;;;;5069214;28;20542;-72
2020/12/14 01:36:57;;;;;;;4.20;3.27;;;4.30;43.00;;;;;;5069539;28;20170;-71
2020/12/14 01:39:23;;;;;;;5.00;3.93;;;4.30;42.60;;;;;;5069702;28;20190;-72
2020/12/14 01:41:48;;;;;;;4.00;2.73;;;4.30;42.70;;;;;;5070126;28;20239;-73
2020/12/14 01:44:14;;;;;;;4.00;3.23;;;4.30;42.60;;;;;;5069397;28;20209;-74
2020/12/14 01:46:43;;;;;;;2.83;2.57;;;4.30;42.60;;;;;;5069979;28;20179;-73
2020/12/14 01:49:09;;;;;;;3.65;3.35;;;4.30;42.20;;;;;;5069114;28;20253;-70
2020/12/14 01:51:36;;;;;;;5.30;3.50;;;4.30;42.10;;;;;;5068300;28;20188;-70
2020/12/14 01:54:16;;;;;;;3.72;3.05;;;4.30;42.00;;;;;;5069145;28;20413;-73
2020/12/14 01:56:43;;;;;;;3.10;2.13;;;4.40;41.90;;;;;;5068300;28;20173;-72
2020/12/14 01:59:09;;;;;;;3.88;3.47;;;4.40;41.70;;;;;;5065989;28;20515;-70
2020/12/14 02:01:35;;;;;;;3.88;3.10;;;4.30;41.60;;;;;;5068286;28;20167;-71
2020/12/14 02:04:01;;;;;;;4.50;4.10;;;4.30;41.90;;;;;;5068439;28;20179;-73
2020/12/14 02:06:26;;;;;;;6.73;3.60;;;4.30;42.10;;;;;;5067857;28;20206;-71
2020/12/14 02:08:52;;;;;;;3.50;3.20;;;4.30;41.90;;;;;;5067291;28;20194;-70
2020/12/14 02:11:17;;;;;;;3.23;2.93;;;4.30;42.00;;;;;;5067829;28;20773;-70
2020/12/14 02:13:43;;;;;;;4.00;3.60;;;4.30;41.70;;;;;;5067328;28;20241;-73
2020/12/14 02:16:08;;;;;;;3.47;3.20;;;4.20;41.60;;;;;;5067817;28;20186;-72
2020/12/14 02:18:34;;;;;;;3.17;2.87;;;4.20;41.90;;;;;;5067368;28;20197;-73
2020/12/14 02:21:00;;;;;;;4.67;3.80;;;4.10;42.00;;;;;;5066812;28;20187;-72
2020/12/14 02:23:25;;;;;;;4.47;3.27;;;4.10;42.20;;;;;;5068704;28;20595;-71
2020/12/14 02:25:51;;;;;;;3.37;3.07;;;4.10;42.30;;;;;;5068792;28;20263;-71
2020/12/14 02:28:17;;;;;;;4.75;3.33;;;4.10;42.10;;;;;;5067990;28;20231;-72
2020/12/14 02:30:42;;;;;;;3.77;3.40;;;4.10;42.10;;;;;;5068904;28;20176;-73
2020/12/14 02:33:08;;;;;;;3.80;3.00;;;4.20;42.20;;;;;;5067825;28;20179;-72
2020/12/14 02:35:33;;;;;;;3.60;3.13;;;4.20;41.80;;;;;;5068658;28;20210;-70
2020/12/14 02:37:59;;;;;;;3.40;3.10;;;4.20;41.60;;;;;;5067690;28;20451;-72
2020/12/14 02:40:25;;;;;;;3.70;3.20;;;4.10;41.90;;;;;;5066933;28;20187;-73
2020/12/14 02:42:50;;;;;;;3.17;2.60;;;4.10;41.70;;;;;;5067523;28;20183;-70
2020/12/14 02:45:16;;;;;;;3.87;3.57;;;4.10;41.70;;;;;;5067194;28;20206;-72
2020/12/14 02:47:41;;;;;;;3.73;3.43;;;4.10;41.90;;;;;;5065652;28;20245;-73
2020/12/14 02:50:07;;;;;;;4.93;4.40;;;4.10;41.50;;;;;;5067284;28;20183;-73
2020/12/14 02:52:32;;;;;;;5.37;3.50;;;4.10;41.80;;;;;;5066874;28;20175;-73
2020/12/14 02:54:58;;;;;;;4.80;4.27;;;4.10;41.90;;;;;;5065592;28;20209;-71
2020/12/14 02:57:23;;;;;;;3.50;3.20;;;4.10;41.80;;;;;;5065566;28;20178;-72
2020/12/14 02:59:50;;;;;;;4.43;3.77;;;4.10;41.90;;;;;;5064345;28;20182;-71
2020/12/14 03:02:15;;;;;;;4.28;3.88;;;4.10;41.80;;;;;;5065700;28;20183;-73
2020/12/14 03:04:41;;;;;;;6.57;4.80;;;4.00;42.40;;;;;;5065726;28;20194;-73
2020/12/14 03:07:07;;;;;;;3.10;2.90;;;3.90;42.20;;;;;;5067139;28;20552;-71
2020/12/14 03:09:32;;;;;;;6.17;4.83;;;3.90;42.30;;;;;;5066327;28;20222;-73
2020/12/14 03:12:00;;;;;;;7.03;4.27;;;3.80;42.20;;;;;;5069159;28;20190;-73
2020/12/14 03:14:27;;;;;;;5.00;4.25;;;3.80;42.90;;;;;;5072237;28;20198;-72
2020/12/14 03:16:53;;;;;;;3.55;3.25;;;3.80;42.90;;;;;;5071640;28;20225;-73
2020/12/14 03:19:19;;;;;;;3.90;3.60;;;3.80;42.70;;;;;;5070454;28;20186;-70
2020/12/14 03:21:45;;;;;;;4.50;4.10;;;3.70;42.60;;;;;;5070479;28;20431;-73
2020/12/14 03:24:11;;;;;;;5.00;3.30;;;3.70;42.80;;;;;;5071608;28;20191;-70
2020/12/14 03:26:37;;;;;;;4.30;3.90;;;3.70;42.60;;;;;;5071226;28;20174;-73
2020/12/14 03:29:03;;;;;;;4.23;3.67;;;3.70;42.70;;;;;;5069989;28;20178;-72
2020/12/14 03:31:29;;;;;;;6.20;4.00;;;3.70;42.70;;;;;;5071946;28;20226;-71
2020/12/14 03:33:55;;;;;;;4.97;3.80;;;3.60;42.50;;;;;;5071115;28;20667;-72
2020/12/14 03:36:22;;;;;;;4.40;3.55;;;3.60;42.50;;;;;;5069131;28;20260;-71
2020/12/14 03:38:49;;;;;;;3.78;3.42;;;3.70;42.10;;;;;;5068692;28;20206;-72
2020/12/14 03:41:15;;;;;;;4.93;4.07;;;3.70;42.10;;;;;;5068446;28;20260;-71
2020/12/14 03:43:41;;;;;;;6.73;3.90;;;3.60;42.00;;;;;;5068058;28;20182;-72
2020/12/14 03:46:17;;;;;;;5.70;3.70;;;3.60;42.00;;;;;;5068866;28;20695;-73
2020/12/14 03:48:43;;;;;;;3.65;3.33;;;3.50;42.30;;;;;;5069821;28;20198;-72
2020/12/14 03:51:10;;;;;;;4.40;4.00;;;3.50;42.40;;;;;;5068121;28;20174;-70
2020/12/14 03:53:36;;;;;;;5.80;4.22;;;3.50;42.50;;;;;;5069028;28;20234;-72
2020/12/14 03:56:02;;;;;;;5.50;4.37;;;3.40;42.50;;;;;;5070462;28;20203;-70
2020/12/14 03:58:27;;;;;;;5.70;4.60;;;3.40;42.90;;;;;;5069530;28;20185;-72
2020/12/14 04:00:53;;;;;;;5.60;5.00;;;3.30;43.00;;;;;;5070766;28;20182;-74
2020/12/14 04:03:18;;;;;;;4.37;3.87;;;3.30;42.90;;;;;;5069054;28;20185;-71
2020/12/14 04:05:44;;;;;;;5.90;5.30;;;3.30;43.30;;;;;;5070929;28;20266;-72
2020/12/14 04:08:09;;;;;;;5.77;5.27;;;3.30;43.30;;;;;;5070108;28;20210;-71
2020/12/14 04:10:36;;;;;;;5.70;4.17;;;3.30;43.40;;;;;;5069540;28;20186;-72
2020/12/14 04:13:02;;;;;;;4.60;3.78;;;3.30;43.30;;;;;;5070670;28;20490;-72
2020/12/14 04:15:28;;;;;;;4.72;4.20;;;3.30;43.70;;;;;;5069115;28;20248;-72
2020/12/14 04:17:53;;;;;;;5.40;4.87;;;3.40;43.70;;;;;;5069472;28;20183;-71
2020/12/14 04:20:19;;;;;;;4.00;3.70;;;3.30;43.60;;;;;;5069195;28;20427;-73
2020/12/14 04:22:46;;;;;;;6.57;5.33;;;3.30;43.90;;;;;;5068640;28;20179;-74
2020/12/14 04:25:11;;;;;;;5.15;4.60;;;3.30;43.70;;;;;;5069275;28;20202;-72
2020/12/14 04:27:37;;;;;;;5.23;4.73;;;3.30;43.60;;;;;;5070044;28;20252;-71
2020/12/14 04:30:03;;;;;;;5.80;3.90;;;3.30;44.10;;;;;;5069439;28;20177;-71
2020/12/14 04:32:29;;;;;;;5.60;4.03;;;3.30;43.90;;;;;;5068071;28;20194;-69
2020/12/14 04:34:54;;;;;;;4.97;4.17;;;3.40;43.60;;;;;;5069147;28;20204;-71
2020/12/14 04:37:20;;;;;;;6.20;5.13;;;3.30;43.70;;;;;;5070582;28;20183;-73
2020/12/14 04:39:45;;;;;;;8.00;4.37;;;3.30;43.60;;;;;;5069263;28;20189;-73
2020/12/14 04:42:11;;;;;;;7.23;4.57;;;3.20;43.80;;;;;;5070623;28;20170;-72
2020/12/14 04:44:38;;;;;;;5.00;4.60;;;3.20;43.90;;;;;;5071680;28;20809;-72
2020/12/14 04:47:04;;;;;;;5.10;4.40;;;3.20;44.00;;;;;;5070157;28;20190;-70
2020/12/14 04:49:32;;;;;;;5.25;4.40;;;3.20;44.00;;;;;;5071008;28;20655;-73
2020/12/14 04:52:01;;;;;;;8.15;4.88;;;3.20;43.90;;;;;;5070548;28;20198;-73
2020/12/14 04:54:27;;;;;;;5.57;4.97;;;3.20;44.10;;;;;;5068860;28;20206;-69
2020/12/14 04:56:54;;;;;;;5.63;5.03;;;3.30;44.30;;;;;;5068273;28;20189;-71
2020/12/14 04:59:24;;;;;;;5.30;4.80;;;3.30;44.10;;;;;;5067958;28;20171;-71
2020/12/14 05:01:50;;;;;;;5.70;5.20;;;3.20;44.50;;;;;;5069592;28;20265;-71
2020/12/14 05:04:16;;;;;;;6.60;5.95;;;3.20;44.50;;;;;;5068143;28;20185;-73
2020/12/14 05:06:49;;;;;;;7.80;7.00;;;3.20;44.40;;;;;;5068443;28;20179;-71
2020/12/14 05:09:20;;;;;;;7.03;6.35;;;3.10;44.50;;;;;;5068334;28;20190;-71
2020/12/14 05:11:45;;;;;;;7.88;6.20;;;3.10;44.40;;;;;;5069000;28;20207;-71
2020/12/14 05:14:20;;;;;;;7.23;6.47;;;3.10;44.80;;;;;;5069124;28;20179;-71
2020/12/14 05:16:46;;;;;;;7.63;5.25;;;3.00;43.80;;;;;;5068516;28;20310;-71
2020/12/14 05:19:27;;;;;;;8.75;5.70;;;3.00;43.60;;;;;;5054701;28;20171;-73
2020/12/14 05:21:59;;;;;;;7.32;6.10;;;2.90;43.10;;;;;;5052864;28;20164;-72
2020/12/14 05:24:26;;;;;;;8.60;6.00;;;2.70;43.10;;;;;;5052419;28;20174;-72
2020/12/14 05:26:53;;;;;;;6.82;6.10;;;2.70;43.60;;;;;;5052323;28;20202;-72
2020/12/14 05:29:26;;;;;;;6.18;5.57;;;2.60;43.80;;;;;;5052400;28;20171;-72
2020/12/14 05:32:05;;;;;;;6.25;5.10;;;2.60;44.30;;;;;;5051688;28;20179;-72
2020/12/14 05:34:32;;;;;;;6.70;6.10;;;2.60;45.30;;;;;;5052051;28;20894;-72
2020/12/14 05:37:04;;;;;;;6.43;5.78;;;2.70;45.30;;;;;;5052218;28;20266;-72
2020/12/14 05:39:30;;;;;;;6.18;5.57;;;2.70;45.10;;;;;;5051727;28;20182;-72
2020/12/14 05:42:12;;;;;;;8.47;7.03;;;2.60;45.30;;;;;;5050847;28;20652;-72
2020/12/14 05:44:39;;;;;;;5.38;4.88;;;2.60;45.20;;;;;;5050756;28;20445;-72
2020/12/14 05:47:21;;;;;;;7.35;6.03;;;2.70;46.00;;;;;;5052120;28;20195;-72
2020/12/14 05:49:46;;;;;;;12.68;6.55;;;2.60;45.90;;;;;;5052131;28;20182;-72
2020/12/14 05:52:17;;;;;;;6.57;5.83;;;2.70;46.00;;;;;;5053013;28;20184;-73
2020/12/14 05:54:50;;;;;;;7.93;6.45;;;2.70;45.90;;;;;;5052598;28;20678;-72
2020/12/14 05:57:26;;;;;;;6.78;6.22;;;2.70;46.20;;;;;;5052350;28;20737;-72
2020/12/14 05:59:57;;;;;;;7.10;6.43;;;2.80;46.20;;;;;;5051921;28;20182;-72
2020/12/14 06:02:25;;;;;;;8.63;7.38;;;2.70;45.50;;;;;;5052331;28;20174;-71
2020/12/14 06:04:54;;;;;;;6.18;5.60;;;2.70;44.90;;;;;;5051412;28;20617;-72
2020/12/14 06:07:25;;;;;;;7.45;6.75;;;2.70;44.60;;;;;;5051363;28;20195;-72
2020/12/14 06:10:03;;;;;;;8.25;5.47;;;2.50;44.00;;;;;;5051187;28;20167;-72
2020/12/14 06:12:30;;;;;;;7.10;6.30;;;2.40;43.90;;;;;;5050145;28;20182;-71
2020/12/14 06:14:59;;;;;;;7.40;6.70;;;2.30;44.30;;;;;;5051611;28;20203;-71
2020/12/14 06:17:27;;;;;;;7.25;6.55;;;2.10;44.30;;;;;;5051686;28;20648;-72
2020/12/14 06:20:02;;;;;;;12.85;6.82;;;2.00;44.40;;;;;;5051198;28;20175;-72
2020/12/14 06:22:29;;;;;;;12.15;7.88;;;1.90;45.00;;;;;;5051663;28;20220;-70
2020/12/14 06:24:58;;;;;;;7.20;6.38;;;1.80;45.50;;;;;;5051069;28;20633;-71
2020/12/14 06:27:26;;;;;;;7.47;6.78;;;1.80;45.50;;;;;;5051477;28;20207;-71
2020/12/14 06:29:52;;;;;;;9.85;6.68;;;1.80;45.50;;;;;;5051295;28;20177;-70
2020/12/14 06:32:38;;;;;;;7.90;7.10;;;1.70;45.60;;;;;;5051305;28;20183;-70
2020/12/14 06:35:15;;;;;;;6.28;5.70;;;1.70;45.70;;;;;;5045289;28;20314;-70
2020/12/14 06:37:52;;;;;;;11.77;6.82;;;1.60;46.10;;;;;;5031428;28;20182;-70
2020/12/14 06:40:18;;;;;;;6.82;6.18;;;1.60;46.20;;;;;;5041664;28;20647;-70
2020/12/14 06:42:44;;;;;;;6.55;5.95;;;1.60;46.50;;;;;;5051087;28;20179;-70
2020/12/14 06:45:12;;;;;;;5.43;4.93;;;1.60;46.90;;;;;;5051192;28;20202;-70
2020/12/14 06:47:43;;;;;;;9.43;6.38;;;1.60;47.00;;;;;;5045944;28;20464;-72
2020/12/14 06:50:37;;;;;;;7.70;6.82;;;1.60;47.30;;;;;;5030120;28;20261;-72
2020/12/14 06:53:04;;;;;;;10.45;8.45;;;1.60;47.80;;;;;;5042885;28;20729;-71
2020/12/14 06:55:43;;;;;;;8.70;7.47;;;1.60;47.90;;;;;;5050279;28;20280;-72
2020/12/14 06:58:28;;;;;;;7.25;6.63;;;1.60;47.70;;;;;;5050454;28;20178;-72
2020/12/14 07:00:54;;;;;;;10.23;8.38;;;1.50;47.80;;;;;;5050340;28;20213;-70
2020/12/14 07:03:35;;;;;;;7.07;6.47;;;1.50;48.00;;;;;;5050659;28;20295;-72
2020/12/14 07:06:05;;;;;;;7.47;6.68;;;1.50;48.40;;;;;;5049646;28;20210;-71
2020/12/14 07:08:38;;;;;;;9.13;8.23;;;1.50;48.50;;;;;;5042682;28;20202;-70
2020/12/14 07:11:24;;;;;;;8.95;7.13;;;1.50;48.90;;;;;;5030521;28;20167;-70
2020/12/14 07:13:51;;;;;;;10.00;8.05;;;1.40;49.20;;;;;;5042285;28;20173;-71
2020/12/14 07:16:18;;;;;;;7.95;7.15;;;1.40;49.70;;;;;;5050364;28;20191;-70
2020/12/14 07:18:46;;;;;;;8.35;7.53;;;1.40;50.10;;;;;;5050032;28;20179;-71
2020/12/14 07:21:12;;;;;;;9.10;7.65;;;1.40;50.10;;;;;;5050029;28;20213;-71
2020/12/14 07:23:40;;;;;;;8.68;7.55;;;1.40;50.30;;;;;;5049871;28;20699;-70
2020/12/14 07:26:07;;;;;;;9.85;8.85;;;1.40;50.50;;;;;;5038102;28;20206;-71
2020/12/14 07:28:48;;;;;;;7.32;6.75;;;1.40;50.50;;;;;;5029873;28;20194;-72
2020/12/14 07:31:15;;;;;;;13.07;9.35;;;1.40;50.50;;;;;;5030237;28;20780;-71
2020/12/14 07:33:49;;;;;;;9.57;8.40;;;1.40;50.40;;;;;;5029893;28;20171;-72
2020/12/14 07:36:15;;;;;;;7.93;7.20;;;1.50;51.00;;;;;;5029877;28;20235;-72
2020/12/14 07:38:59;;;;;;;9.17;8.23;;;1.40;51.00;;;;;;5030233;28;20210;-72
2020/12/14 07:41:26;;;;;;;8.02;7.22;;;1.50;51.20;;;;;;5037998;28;20182;-72
2020/12/14 07:43:54;;;;;;;10.98;9.82;;;1.50;51.20;;;;;;5047337;28;20226;-72
2020/12/14 07:46:25;;;;;;;8.95;8.05;;;1.50;51.00;;;;;;5037744;28;20641;-72
2020/12/14 07:48:52;;;;;;;8.00;7.30;;;1.50;51.20;;;;;;5043039;28;20233;-72
2020/12/14 07:51:18;;;;;;;8.85;7.95;;;1.50;51.30;;;;;;5069910;28;20169;-72
2020/12/14 07:53:44;;;;;;;11.05;9.95;;;1.50;51.40;;;;;;5055458;28;20206;-74
2020/12/14 07:56:10;;;;;;;10.33;9.43;;;1.60;51.30;;;;;;5050522;28;20248;-73
2020/12/14 07:58:46;;;;;;;8.87;8.07;;;1.60;51.60;;;;;;5052522;28;20989;-71
2020/12/14 08:01:14;;;;;;;11.65;9.50;;;1.60;51.60;;;;;;5052152;28;20272;-73
2020/12/14 08:03:40;;;;;;;10.25;8.40;;;;;;;;;;5051349;28;20186;-72
2020/12/14 08:06:11;;;;;;;9.30;7.80;;;1.70;51.60;;;;;;5053217;28;20609;-72
2020/12/14 08:08:39;;;;;;;9.38;8.48;;;1.80;51.30;;;;;;5053152;28;20464;-73
2020/12/14 08:11:04;;;;;;;9.18;8.27;;;1.90;51.40;;;;;;5054376;28;20163;-72
2020/12/14 08:13:30;;;;;;;9.70;8.67;;;1.90;50.90;;;;;;5070750;28;20172;-70
2020/12/14 08:15:56;;;;;;;21.50;10.13;;;2.00;50.90;;;;;;5052522;28;20718;-72
2020/12/14 08:18:21;;;;;;;8.63;7.73;;;2.00;50.60;;;;;;5052919;28;20183;-71
2020/12/14 08:20:47;;;;;;;7.73;7.03;;;2.00;50.60;;;;;;5052799;28;20228;-72
2020/12/14 08:23:16;;;;;;;8.53;7.50;;;2.10;50.70;;;;;;5053250;28;20178;-72
2020/12/14 08:25:50;;;;;;;8.15;7.35;;;2.20;50.30;;;;;;5033614;28;20261;-72
2020/12/14 08:28:15;;;;;;;8.27;7.47;;;2.20;50.10;;;;;;5033079;28;20211;-71
2020/12/14 08:30:41;;;;;;;9.10;8.13;;;2.30;49.60;;;;;;5032896;28;20163;-71
2020/12/14 08:33:08;;;;;;;9.77;8.97;;;2.30;49.40;;;;;;5042142;28;20686;-72
2020/12/14 08:35:34;;;;;;;8.38;7.60;;;2.40;49.10;;;;;;5049527;28;20449;-71
2020/12/14 08:38:04;;;;;;;8.55;7.45;;;2.50;48.80;;;;;;5043316;28;20197;-70
2020/12/14 08:40:31;;;;;;;7.22;6.53;;;2.60;48.40;;;;;;5030148;28;20179;-71
2020/12/14 08:43:14;;;;;;;8.48;7.72;;;2.60;47.30;;;;;;5049797;28;20193;-71
2020/12/14 08:46:14;;;;;;;8.02;7.32;;;2.70;47.20;;;;;;5048074;28;20549;-71
2020/12/14 08:48:46;;;;;;;9.18;8.13;;;2.80;46.30;;;;;;5063349;28;20671;-72
2020/12/14 08:51:32;;;;;;;8.45;7.60;;;2.90;46.40;;;;;;5080104;28;20179;-72
2020/12/14 08:54:15;;;;;;;8.48;7.68;;;3.00;45.40;;;;;;5059728;28;20179;-71
2020/12/14 08:56:41;;;;;;;15.18;7.57;;;3.10;45.00;;;;;;5047055;28;20365;-70
2020/12/14 08:59:13;;;;;;;13.33;9.60;;;3.20;44.00;;;;;;5050645;28;20289;-71
2020/12/14 09:01:39;;;;;;;10.18;8.02;;;3.30;43.60;;;;;;5050944;28;20787;-71
2020/12/14 09:04:05;;;;;;;8.00;7.40;;;3.40;43.20;;;;;;5051160;28;20221;-72
2020/12/14 09:06:36;;;;;;;12.68;7.55;;;3.40;43.00;;;;;;5049588;28;20195;-73
2020/12/14 09:09:12;;;;;;;8.77;7.97;;;3.50;42.50;;;;;;5051269;28;20202;-71
2020/12/14 09:11:50;;;;;;;8.13;7.30;;;3.50;41.90;;;;;;5051761;28;20228;-70
2020/12/14 09:14:20;;;;;;;8.20;7.40;;;3.60;42.00;;;;;;5051084;28;20214;-71
2020/12/14 09:16:51;;;;;;;8.25;7.47;;;3.70;42.10;;;;;;5051117;28;20179;-72
2020/12/14 09:19:26;;;;;;;13.55;7.97;;;3.80;41.90;;;;;;5051284;28;20179;-71
2020/12/14 09:21:52;;;;;;;9.00;8.07;;;3.90;40.70;;;;;;5052774;28;20183;-71
2020/12/14 09:24:24;;;;;;;9.03;8.23;;;4.00;40.20;;;;;;5074603;28;20172;-71
2020/12/14 09:26:52;;;;;;;9.48;7.95;;;4.00;40.70;;;;;;5072162;28;20815;-70
2020/12/14 09:29:17;;;;;;;8.35;7.57;;;4.20;40.10;;;;;;5072324;28;20266;-72
2020/12/14 09:31:51;;;;;;;8.07;7.00;;;4.30;39.90;;;;;;5061950;28;20276;-71
2020/12/14 09:34:17;;;;;;;9.80;6.90;;;4.40;39.10;;;;;;5051277;28;20179;-72
2020/12/14 09:36:43;;;;;;;9.20;7.55;;;4.50;37.90;;;;;;5053230;28;20181;-72
2020/12/14 09:39:08;;;;;;;16.63;8.60;;;4.50;37.70;;;;;;5052200;28;20282;-72
2020/12/14 09:41:34;;;;;;;7.70;6.87;;;4.50;37.80;;;;;;5044735;28;20189;-72
2020/12/14 09:44:00;;;;;;;16.33;8.57;;;4.60;37.80;;;;;;5032375;28;20180;-71
2020/12/14 09:46:29;;;;;;;7.93;7.23;;;4.70;37.90;;;;;;5036034;28;20584;-72
2020/12/14 09:48:56;;;;;;;8.60;7.43;;;4.80;37.20;;;;;;5050737;28;20212;-72
2020/12/14 09:51:23;;;;;;;11.10;7.47;;;4.90;36.80;;;;;;5051529;28;20432;-72
2020/12/14 09:53:49;;;;;;;7.90;7.20;;;5.00;36.60;;;;;;5051856;28;20673;-72
2020/12/14 09:56:15;;;;;;;7.78;7.07;;;5.10;37.00;;;;;;5052145;28;20297;-72
2020/12/14 09:58:40;;;;;;;10.70;7.43;;;5.20;36.60;;;;;;5052112;28;20207;-72
2020/12/14 10:01:07;;;;;;;10.03;7.50;;;5.30;36.60;;;;;;5051172;28;20815;-72
2020/12/14 10:03:33;;;;;;;12.37;7.87;;;5.40;35.40;;;;;;5051963;28;20196;-72
2020/12/14 10:05:59;;;;;;;8.50;7.23;;;5.50;35.00;;;;;;5051763;28;20435;-72
2020/12/14 10:08:24;;;;;;;7.57;6.80;;;5.60;34.40;;;;;;5050756;28;20467;-72
2020/12/14 10:10:51;;;;;;;9.33;8.00;;;5.60;34.00;;;;;;5050899;28;20518;-72
2020/12/14 10:13:17;;;;;;;8.90;7.70;;;5.50;34.40;;;;;;5051717;28;20184;-72
2020/12/14 10:15:43;;;;;;;8.55;7.63;;;5.60;33.90;;;;;;5051659;28;20519;-72
2020/12/14 10:18:08;;;;;;;10.17;9.17;;;5.60;33.90;;;;;;5051826;28;20201;-72
2020/12/14 10:20:34;;;;;;;16.87;8.93;;;5.70;34.20;;;;;;5050491;28;20179;-72
2020/12/14 10:23:00;;;;;;;8.00;7.30;;;5.70;33.60;;;;;;5041789;28;20193;-70
2020/12/14 10:25:25;;;;;;;10.33;7.30;;;5.80;33.90;;;;;;5051783;28;20204;-71
2020/12/14 10:27:52;;;;;;;8.47;7.47;;;5.90;33.40;;;;;;5051522;28;20857;-72
2020/12/14 10:30:19;;;;;;;8.93;8.13;;;6.00;32.90;;;;;;5049681;28;20607;-72
2020/12/14 10:32:45;;;;;;;9.13;8.27;;;6.10;33.40;;;;;;5048254;28;20442;-71
2020/12/14 10:35:11;;;;;;;8.13;6.97;;;6.20;33.20;;;;;;5049212;28;20461;-72
2020/12/14 10:37:36;;;;;;;8.70;7.80;;;6.30;32.30;;;;;;5051903;28;20791;-72
2020/12/14 10:40:04;;;;;;;9.67;8.73;;;6.50;31.90;;;;;;5050169;28;20252;-72
2020/12/14 10:42:31;;;;;;;9.23;8.30;;;6.50;31.70;;;;;;5051489;28;20183;-71
2020/12/14 10:44:58;;;;;;;9.73;8.83;;;6.50;31.50;;;;;;5050889;28;20439;-72
2020/12/14 10:47:23;;;;;;;8.77;8.07;;;6.60;31.30;;;;;;5051373;28;20551;-72
2020/12/14 10:49:49;;;;;;;9.60;8.40;;;6.60;31.20;;;;;;5052411;28;20410;-72
2020/12/14 10:52:15;;;;;;;10.93;9.20;;;6.70;31.20;;;;;;5054321;28;20248;-72
2020/12/14 10:54:40;;;;;;;8.73;7.93;;;6.70;31.20;;;;;;5070615;28;20452;-72
2020/12/14 10:57:06;;;;;;;9.87;8.53;;;6.80;31.10;;;;;;5054513;28;20567;-72
2020/12/14 10:59:32;;;;;;;8.23;7.50;;;6.80;30.80;;;;;;5050965;28;20179;-72
2020/12/14 11:01:57;;;;;;;7.70;7.00;;;6.90;30.70;;;;;;5042850;28;20176;-72
2020/12/14 11:04:23;;;;;;;8.37;7.57;;;6.90;30.40;;;;;;5030724;28;20270;-72
2020/12/14 11:06:49;;;;;;;7.10;6.50;;;7.10;30.60;;;;;;5029550;28;20180;-72
2020/12/14 11:09:14;;;;;;;10.37;8.43;;;7.00;30.30;;;;;;5029122;28;20950;-72
2020/12/14 11:11:40;;;;;;;8.07;7.37;;;7.10;30.20;;;;;;5036649;28;20652;-72
2020/12/14 11:14:06;;;;;;;8.23;6.10;;;7.20;30.40;;;;;;5049262;28;20180;-72
2020/12/14 11:16:32;;;;;;;8.90;8.10;;;7.30;29.80;;;;;;5037341;28;20232;-72
2020/12/14 11:18:59;;;;;;;7.80;7.00;;;7.30;29.90;;;;;;5030508;28;20611;-72
2020/12/14 11:21:25;;;;;;;7.70;7.10;;;7.50;30.00;;;;;;5029358;28;20425;-72
2020/12/14 11:23:51;;;;;;;8.13;7.23;;;7.60;30.00;;;;;;5030509;28;20472;-72
2020/12/14 11:26:16;;;;;;;11.40;7.07;;;7.60;29.50;;;;;;5037564;28;20457;-72
2020/12/14 11:28:42;;;;;;;7.10;6.60;;;7.60;29.50;;;;;;5050370;28;20215;-72
2020/12/14 11:31:10;;;;;;;9.60;8.33;;;7.60;29.70;;;;;;5050109;28;20179;-72
2020/12/14 11:33:35;;;;;;;8.07;7.27;;;7.70;29.90;;;;;;5063038;28;20186;-73
2020/12/14 11:36:03;;;;;;;9.27;8.20;;;7.80;29.70;;;;;;5052852;28;20463;-72
2020/12/14 11:38:30;;;;;;;9.00;8.20;;;7.80;29.80;;;;;;5050451;28;20200;-72
2020/12/14 11:40:59;;;;;;;9.77;8.87;;;7.80;29.80;;;;;;5050856;28;20515;-74
2020/12/14 11:43:25;;;;;;;10.63;9.17;;;7.90;29.60;;;;;;5058658;28;20481;-72
2020/12/14 11:45:51;;;;;;;8.00;7.40;;;7.90;29.50;;;;;;5055030;28;20520;-73
2020/12/14 11:48:17;;;;;;;7.33;6.73;;;7.90;29.60;;;;;;5058020;28;20212;-73
2020/12/14 11:50:43;;;;;;;10.90;8.73;;;8.00;29.30;;;;;;5053985;28;20508;-72
2020/12/14 11:53:09;;;;;;;9.77;8.60;;;7.90;29.40;;;;;;5053307;28;20269;-74
2020/12/14 11:55:36;;;;;;;18.37;9.03;;;7.90;29.70;;;;;;5054514;28;20482;-73
2020/12/14 11:58:01;;;;;;;8.33;7.53;;;7.90;29.50;;;;;;5053232;28;20641;-73
2020/12/14 12:00:27;;;;;;;7.93;7.17;;;8.00;30.00;;;;;;5053368;28;20433;-72
2020/12/14 12:02:52;;;;;;;8.03;7.43;;;8.10;29.60;;;;;;5053279;28;20655;-71
2020/12/14 12:05:18;;;;;;;12.90;8.80;;;8.10;29.50;;;;;;5054044;28;20204;-71
2020/12/14 12:07:43;;;;;;;9.97;7.20;;;8.20;29.20;;;;;;5054232;28;20205;-73
2020/12/14 12:10:09;;;;;;;11.10;8.80;;;8.20;29.00;;;;;;5050232;28;20204;-73
2020/12/14 12:12:37;;;;;;;8.67;7.87;;;8.30;29.00;;;;;;5034980;28;20175;-73
2020/12/14 12:15:03;;;;;;;7.67;7.03;;;8.30;28.90;;;;;;5044463;28;20259;-72
2020/12/14 12:17:29;;;;;;;8.37;7.53;;;8.40;29.00;;;;;;5039401;28;20428;-71
2020/12/14 12:19:54;;;;;;;8.73;7.93;;;8.50;28.70;;;;;;5035235;28;20416;-74
2020/12/14 12:22:20;;;;;;;10.00;9.10;;;8.50;28.90;;;;;;5052322;28;20185;-72
2020/12/14 12:24:46;;;;;;;12.93;9.17;;;8.60;29.10;;;;;;5052040;28;20259;-71
2020/12/14 12:27:11;;;;;;;7.73;7.13;;;8.70;28.80;;;;;;5053436;28;20200;-72
2020/12/14 12:29:37;;;;;;;8.27;7.40;;;8.70;28.70;;;;;;5050206;28;20519;-72
2020/12/14 12:32:03;;;;;;;9.00;8.23;;;8.70;28.80;;;;;;5053597;28;20200;-72
2020/12/14 12:34:28;;;;;;;9.40;7.60;;;8.80;28.80;;;;;;5053105;28;20879;-73
2020/12/14 12:36:56;;;;;;;9.00;8.10;;;8.80;28.30;;;;;;5053607;28;20204;-72
2020/12/14 12:39:21;;;;;;;8.03;7.43;;;8.80;28.30;;;;;;5052055;28;20213;-72
2020/12/14 12:41:51;;;;;;;8.80;8.00;;;8.90;28.30;;;;;;5038959;28;20961;-73
2020/12/14 12:44:18;;;;;;;8.83;7.07;;;8.90;27.90;;;;;;5037313;28;20542;-72
2020/12/14 12:46:44;;;;;;;9.27;8.30;;;9.00;27.70;;;;;;5053078;28;20470;-72
2020/12/14 12:49:10;;;;;;;8.63;7.83;;;9.10;27.90;;;;;;5044097;28;20475;-71
2020/12/14 12:51:35;;;;;;;8.90;8.20;;;9.10;27.90;;;;;;5052559;28;20458;-73
2020/12/14 12:54:02;;;;;;;7.93;7.23;;;9.10;27.40;;;;;;5053620;28;20236;-72
2020/12/14 12:56:28;;;;;;;8.67;7.87;;;9.20;27.30;;;;;;5053385;28;20293;-72
2020/12/14 12:58:54;;;;;;;7.90;7.20;;;9.20;27.20;;;;;;5048027;28;20507;-72